sensor_id;sensor_type;location;lat;lon;timestamp;temperature;humidity
67641;SHT31;54434;50.096;20.082;2022-09-20T00:01:19;9.75;89.71
67641;SHT31;54434;50.096;20.082;2022-09-20T00:04:00;9.76;89.71
67641;SHT31;54434;50.096;20.082;2022-09-20T00:06:38;9.75;89.72
67641;SHT31;54434;50.096;20.082;2022-09-20T00:09:16;9.75;89.70
67641;SHT31;54434;50.096;20.082;2022-09-20T00:11:53;9.76;89.73
67641;SHT31;54434;50.096;20.082;2022-09-20T00:14:29;9.76;89.74
67641;SHT31;54434;50.096;20.082;2022-09-20T00:17:06;9.78;89.72
67641;SHT31;54434;50.096;20.082;2022-09-20T00:19:42;9.80;89.75
67641;SHT31;54434;50.096;20.082;2022-09-20T00:22:19;9.79;89.74
67641;SHT31;54434;50.096;20.082;2022-09-20T00:24:55;9.80;89.76
67641;SHT31;54434;50.096;20.082;2022-09-20T00:27:31;9.80;89.76
67641;SHT31;54434;50.096;20.082;2022-09-20T00:30:10;9.82;89.71
67641;SHT31;54434;50.096;20.082;2022-09-20T00:32:47;9.84;89.70
67641;SHT31;54434;50.096;20.082;2022-09-20T00:35:23;9.83;89.65
67641;SHT31;54434;50.096;20.082;2022-09-20T00:38:00;9.84;89.67
67641;SHT31;54434;50.096;20.082;2022-09-20T00:40:36;9.85;89.69
67641;SHT31;54434;50.096;20.082;2022-09-20T00:43:15;9.85;89.69
67641;SHT31;54434;50.096;20.082;2022-09-20T00:46:17;9.86;89.69
67641;SHT31;54434;50.096;20.082;2022-09-20T00:49:02;9.86;89.63
67641;SHT31;54434;50.096;20.082;2022-09-20T00:51:48;9.85;89.70
67641;SHT31;54434;50.096;20.082;2022-09-20T00:54:32;9.84;89.69
67641;SHT31;54434;50.096;20.082;2022-09-20T00:57:09;9.85;89.69
67641;SHT31;54434;50.096;20.082;2022-09-20T00:59:46;9.86;89.71
67641;SHT31;54434;50.096;20.082;2022-09-20T01:02:26;9.88;89.78
67641;SHT31;54434;50.096;20.082;2022-09-20T01:05:07;9.89;89.82
67641;SHT31;54434;50.096;20.082;2022-09-20T01:07:46;9.89;89.85
67641;SHT31;54434;50.096;20.082;2022-09-20T01:10:25;9.91;89.93
67641;SHT31;54434;50.096;20.082;2022-09-20T01:13:03;9.92;89.98
67641;SHT31;54434;50.096;20.082;2022-09-20T01:15:40;9.93;89.98
67641;SHT31;54434;50.096;20.082;2022-09-20T01:18:19;9.94;90.17
67641;SHT31;54434;50.096;20.082;2022-09-20T01:20:58;9.94;90.13
67641;SHT31;54434;50.096;20.082;2022-09-20T01:23:47;9.95;90.21
67641;SHT31;54434;50.096;20.082;2022-09-20T01:26:42;9.95;90.18
67641;SHT31;54434;50.096;20.082;2022-09-20T01:29:44;9.97;90.04
67641;SHT31;54434;50.096;20.082;2022-09-20T01:32:45;9.98;90.09
67641;SHT31;54434;50.096;20.082;2022-09-20T01:35:41;9.99;90.03
67641;SHT31;54434;50.096;20.082;2022-09-20T01:38:28;9.99;90.05
67641;SHT31;54434;50.096;20.082;2022-09-20T01:41:16;9.99;89.94
67641;SHT31;54434;50.096;20.082;2022-09-20T01:44:04;10.00;89.95
67641;SHT31;54434;50.096;20.082;2022-09-20T01:46:51;10.00;89.98
67641;SHT31;54434;50.096;20.082;2022-09-20T01:49:43;10.00;89.95
67641;SHT31;54434;50.096;20.082;2022-09-20T01:53:04;10.01;89.90
67641;SHT31;54434;50.096;20.082;2022-09-20T01:56:19;10.00;89.89
67641;SHT31;54434;50.096;20.082;2022-09-20T01:59:47;10.00;90.00
67641;SHT31;54434;50.096;20.082;2022-09-20T02:02:58;10.00;90.03
67641;SHT31;54434;50.096;20.082;2022-09-20T02:06:37;10.01;89.94
67641;SHT31;54434;50.096;20.082;2022-09-20T02:09:47;10.03;89.92
67641;SHT31;54434;50.096;20.082;2022-09-20T02:12:57;10.04;89.92
67641;SHT31;54434;50.096;20.082;2022-09-20T02:16:05;10.04;89.93
67641;SHT31;54434;50.096;20.082;2022-09-20T02:19:29;10.05;89.92
67641;SHT31;54434;50.096;20.082;2022-09-20T02:22:25;10.06;89.93
67641;SHT31;54434;50.096;20.082;2022-09-20T02:25:35;10.07;89.90
67641;SHT31;54434;50.096;20.082;2022-09-20T02:28:44;10.07;89.90
67641;SHT31;54434;50.096;20.082;2022-09-20T02:31:52;10.08;89.91
67641;SHT31;54434;50.096;20.082;2022-09-20T02:34:53;10.09;89.93
67641;SHT31;54434;50.096;20.082;2022-09-20T02:38:00;10.08;89.91
67641;SHT31;54434;50.096;20.082;2022-09-20T02:41:05;10.09;89.90
67641;SHT31;54434;50.096;20.082;2022-09-20T02:44:14;10.10;89.90
67641;SHT31;54434;50.096;20.082;2022-09-20T02:47:06;10.11;89.91
67641;SHT31;54434;50.096;20.082;2022-09-20T02:50:00;10.10;89.91
67641;SHT31;54434;50.096;20.082;2022-09-20T02:52:59;10.12;89.94
67641;SHT31;54434;50.096;20.082;2022-09-20T02:56:02;10.14;89.90
67641;SHT31;54434;50.096;20.082;2022-09-20T02:58:54;10.14;89.93
67641;SHT31;54434;50.096;20.082;2022-09-20T03:01:41;10.15;89.95
67641;SHT31;54434;50.096;20.082;2022-09-20T03:04:38;10.15;89.95
67641;SHT31;54434;50.096;20.082;2022-09-20T03:07:43;10.14;89.89
67641;SHT31;54434;50.096;20.082;2022-09-20T03:10:36;10.15;89.84
67641;SHT31;54434;50.096;20.082;2022-09-20T03:13:29;10.14;89.85
67641;SHT31;54434;50.096;20.082;2022-09-20T03:16:31;10.15;89.85
67641;SHT31;54434;50.096;20.082;2022-09-20T03:19:31;10.18;89.82
67641;SHT31;54434;50.096;20.082;2022-09-20T03:22:33;10.21;89.78
67641;SHT31;54434;50.096;20.082;2022-09-20T03:25:32;10.21;89.70
67641;SHT31;54434;50.096;20.082;2022-09-20T03:28:25;10.23;89.63
67641;SHT31;54434;50.096;20.082;2022-09-20T03:31:29;10.24;89.63
67641;SHT31;54434;50.096;20.082;2022-09-20T03:34:32;10.26;89.57
67641;SHT31;54434;50.096;20.082;2022-09-20T03:37:42;10.27;89.52
67641;SHT31;54434;50.096;20.082;2022-09-20T03:40:50;10.28;89.49
67641;SHT31;54434;50.096;20.082;2022-09-20T03:43:51;10.28;89.50
67641;SHT31;54434;50.096;20.082;2022-09-20T03:46:54;10.30;89.46
67641;SHT31;54434;50.096;20.082;2022-09-20T03:49:56;10.29;89.43
67641;SHT31;54434;50.096;20.082;2022-09-20T03:57:08;10.26;89.36
67641;SHT31;54434;50.096;20.082;2022-09-20T04:00:26;10.22;89.38
67641;SHT31;54434;50.096;20.082;2022-09-20T04:03:29;10.22;89.45
67641;SHT31;54434;50.096;20.082;2022-09-20T04:06:32;10.21;89.54
67641;SHT31;54434;50.096;20.082;2022-09-20T04:09:54;10.21;89.54
67641;SHT31;54434;50.096;20.082;2022-09-20T04:12:51;10.21;89.52
67641;SHT31;54434;50.096;20.082;2022-09-20T04:15:59;10.21;89.46
67641;SHT31;54434;50.096;20.082;2022-09-20T04:18:49;10.22;89.40
67641;SHT31;54434;50.096;20.082;2022-09-20T04:21:33;10.22;89.41
67641;SHT31;54434;50.096;20.082;2022-09-20T04:24:19;10.21;89.35
67641;SHT31;54434;50.096;20.082;2022-09-20T04:27:14;10.21;89.30
67641;SHT31;54434;50.096;20.082;2022-09-20T04:30:01;10.20;89.28
67641;SHT31;54434;50.096;20.082;2022-09-20T04:32:50;10.18;89.30
67641;SHT31;54434;50.096;20.082;2022-09-20T04:35:41;10.17;89.27
67641;SHT31;54434;50.096;20.082;2022-09-20T04:38:42;10.17;89.26
67641;SHT31;54434;50.096;20.082;2022-09-20T04:52:37;10.19;89.19
67641;SHT31;54434;50.096;20.082;2022-09-20T04:55:56;10.20;89.18
67641;SHT31;54434;50.096;20.082;2022-09-20T04:59:04;10.20;89.16
67641;SHT31;54434;50.096;20.082;2022-09-20T05:02:02;10.24;89.17
67641;SHT31;54434;50.096;20.082;2022-09-20T05:05:46;10.25;89.18
67641;SHT31;54434;50.096;20.082;2022-09-20T05:12:36;10.32;89.09
67641;SHT31;54434;50.096;20.082;2022-09-20T05:15:42;10.34;89.04
67641;SHT31;54434;50.096;20.082;2022-09-20T05:18:49;10.39;89.00
67641;SHT31;54434;50.096;20.082;2022-09-20T05:22:15;10.44;88.99
67641;SHT31;54434;50.096;20.082;2022-09-20T05:25:27;10.47;88.90
67641;SHT31;54434;50.096;20.082;2022-09-20T05:28:35;10.52;88.79
67641;SHT31;54434;50.096;20.082;2022-09-20T05:31:33;10.55;88.69
67641;SHT31;54434;50.096;20.082;2022-09-20T05:34:21;10.57;88.60
67641;SHT31;54434;50.096;20.082;2022-09-20T05:37:09;10.59;88.45
67641;SHT31;54434;50.096;20.082;2022-09-20T05:40:00;10.63;88.34
67641;SHT31;54434;50.096;20.082;2022-09-20T05:42:55;10.65;88.20
67641;SHT31;54434;50.096;20.082;2022-09-20T05:45:56;10.67;88.14
67641;SHT31;54434;50.096;20.082;2022-09-20T05:48:54;10.71;88.02
67641;SHT31;54434;50.096;20.082;2022-09-20T05:52:08;10.74;87.87
67641;SHT31;54434;50.096;20.082;2022-09-20T05:58:46;10.85;87.66
67641;SHT31;54434;50.096;20.082;2022-09-20T06:01:54;10.89;87.50
67641;SHT31;54434;50.096;20.082;2022-09-20T06:04:50;10.92;87.39
67641;SHT31;54434;50.096;20.082;2022-09-20T06:07:50;10.95;87.30
67641;SHT31;54434;50.096;20.082;2022-09-20T06:10:53;10.99;87.12
67641;SHT31;54434;50.096;20.082;2022-09-20T06:13:52;11.03;87.05
67641;SHT31;54434;50.096;20.082;2022-09-20T06:16:50;11.06;87.01
67641;SHT31;54434;50.096;20.082;2022-09-20T06:19:38;11.13;87.19
67641;SHT31;54434;50.096;20.082;2022-09-20T06:22:24;11.20;87.10
67641;SHT31;54434;50.096;20.082;2022-09-20T06:25:13;11.24;86.95
67641;SHT31;54434;50.096;20.082;2022-09-20T06:27:57;11.27;86.80
67641;SHT31;54434;50.096;20.082;2022-09-20T06:30:45;11.31;86.54
67641;SHT31;54434;50.096;20.082;2022-09-20T06:33:24;11.34;86.42
67641;SHT31;54434;50.096;20.082;2022-09-20T06:36:03;11.34;86.30
67641;SHT31;54434;50.096;20.082;2022-09-20T06:39:07;11.34;86.33
67641;SHT31;54434;50.096;20.082;2022-09-20T06:42:12;11.37;86.21
67641;SHT31;54434;50.096;20.082;2022-09-20T06:44:49;11.37;85.97
67641;SHT31;54434;50.096;20.082;2022-09-20T06:47:26;11.38;85.84
67641;SHT31;54434;50.096;20.082;2022-09-20T06:50:10;11.41;85.91
67641;SHT31;54434;50.096;20.082;2022-09-20T06:52:50;11.41;85.81
67641;SHT31;54434;50.096;20.082;2022-09-20T06:55:28;11.42;85.75
67641;SHT31;54434;50.096;20.082;2022-09-20T06:58:07;11.43;85.79
67641;SHT31;54434;50.096;20.082;2022-09-20T07:00:45;11.43;85.63
67641;SHT31;54434;50.096;20.082;2022-09-20T07:03:21;11.42;85.59
67641;SHT31;54434;50.096;20.082;2022-09-20T07:05:58;11.42;85.62
67641;SHT31;54434;50.096;20.082;2022-09-20T07:08:35;11.43;85.51
67641;SHT31;54434;50.096;20.082;2022-09-20T07:11:14;11.41;85.38
67641;SHT31;54434;50.096;20.082;2022-09-20T07:13:54;11.39;85.31
67641;SHT31;54434;50.096;20.082;2022-09-20T07:16:31;11.35;84.99
67641;SHT31;54434;50.096;20.082;2022-09-20T07:19:08;11.30;85.09
67641;SHT31;54434;50.096;20.082;2022-09-20T07:21:44;11.27;85.23
67641;SHT31;54434;50.096;20.082;2022-09-20T07:24:20;11.24;85.24
67641;SHT31;54434;50.096;20.082;2022-09-20T07:26:58;11.21;85.26
67641;SHT31;54434;50.096;20.082;2022-09-20T07:29:37;11.21;85.46
67641;SHT31;54434;50.096;20.082;2022-09-20T07:32:13;11.25;85.60
67641;SHT31;54434;50.096;20.082;2022-09-20T07:34:49;11.32;85.69
67641;SHT31;54434;50.096;20.082;2022-09-20T07:37:25;11.47;85.79
67641;SHT31;54434;50.096;20.082;2022-09-20T07:40:09;11.69;85.64
67641;SHT31;54434;50.096;20.082;2022-09-20T07:42:46;11.92;85.23
67641;SHT31;54434;50.096;20.082;2022-09-20T07:45:26;12.15;84.88
67641;SHT31;54434;50.096;20.082;2022-09-20T07:48:04;12.39;84.65
67641;SHT31;54434;50.096;20.082;2022-09-20T07:50:41;12.67;84.30
67641;SHT31;54434;50.096;20.082;2022-09-20T07:53:27;12.96;83.22
67641;SHT31;54434;50.096;20.082;2022-09-20T07:56:06;13.18;82.47
67641;SHT31;54434;50.096;20.082;2022-09-20T07:58:45;13.36;81.71
67641;SHT31;54434;50.096;20.082;2022-09-20T08:01:23;13.53;80.94
67641;SHT31;54434;50.096;20.082;2022-09-20T08:03:59;13.66;80.53
67641;SHT31;54434;50.096;20.082;2022-09-20T08:06:39;13.76;80.34
67641;SHT31;54434;50.096;20.082;2022-09-20T08:09:17;13.83;79.49
67641;SHT31;54434;50.096;20.082;2022-09-20T08:11:54;13.87;78.89
67641;SHT31;54434;50.096;20.082;2022-09-20T08:14:51;13.88;79.00
67641;SHT31;54434;50.096;20.082;2022-09-20T08:17:27;13.97;78.86
67641;SHT31;54434;50.096;20.082;2022-09-20T08:20:04;14.04;78.35
67641;SHT31;54434;50.096;20.082;2022-09-20T08:22:42;14.13;78.56
67641;SHT31;54434;50.096;20.082;2022-09-20T08:25:38;14.24;77.74
67641;SHT31;54434;50.096;20.082;2022-09-20T08:28:14;14.29;77.40
67641;SHT31;54434;50.096;20.082;2022-09-20T08:30:51;14.40;77.13
67641;SHT31;54434;50.096;20.082;2022-09-20T08:33:32;14.49;76.42
67641;SHT31;54434;50.096;20.082;2022-09-20T08:36:13;14.66;76.51
67641;SHT31;54434;50.096;20.082;2022-09-20T08:38:52;15.00;75.25
67641;SHT31;54434;50.096;20.082;2022-09-20T08:41:49;15.15;74.50
67641;SHT31;54434;50.096;20.082;2022-09-20T08:44:34;15.14;74.59
67641;SHT31;54434;50.096;20.082;2022-09-20T08:47:29;15.06;73.64
67641;SHT31;54434;50.096;20.082;2022-09-20T08:50:10;15.01;74.02
67641;SHT31;54434;50.096;20.082;2022-09-20T08:52:49;14.93;73.57
67641;SHT31;54434;50.096;20.082;2022-09-20T08:55:35;14.79;73.70
67641;SHT31;54434;50.096;20.082;2022-09-20T08:58:13;14.98;73.99
67641;SHT31;54434;50.096;20.082;2022-09-20T09:00:50;15.35;73.64
67641;SHT31;54434;50.096;20.082;2022-09-20T09:03:29;15.61;72.28
67641;SHT31;54434;50.096;20.082;2022-09-20T09:06:11;15.89;72.62
67641;SHT31;54434;50.096;20.082;2022-09-20T09:08:50;16.19;71.83
67641;SHT31;54434;50.096;20.082;2022-09-20T09:11:30;16.46;69.81
67641;SHT31;54434;50.096;20.082;2022-09-20T09:14:23;16.57;69.64
67641;SHT31;54434;50.096;20.082;2022-09-20T09:17:26;16.75;69.70
67641;SHT31;54434;50.096;20.082;2022-09-20T09:20:17;16.94;69.18
67641;SHT31;54434;50.096;20.082;2022-09-20T09:23:03;16.92;68.22
67641;SHT31;54434;50.096;20.082;2022-09-20T09:25:51;16.70;68.80
67641;SHT31;54434;50.096;20.082;2022-09-20T09:28:34;16.35;69.56
67641;SHT31;54434;50.096;20.082;2022-09-20T09:31:19;16.05;69.82
67641;SHT31;54434;50.096;20.082;2022-09-20T09:33:58;15.78;70.59
67641;SHT31;54434;50.096;20.082;2022-09-20T09:36:35;15.60;71.28
67641;SHT31;54434;50.096;20.082;2022-09-20T09:39:24;15.55;72.29
67641;SHT31;54434;50.096;20.082;2022-09-20T09:42:19;15.67;73.15
67641;SHT31;54434;50.096;20.082;2022-09-20T09:45:22;15.81;72.80
67641;SHT31;54434;50.096;20.082;2022-09-20T09:48:18;15.81;70.93
67641;SHT31;54434;50.096;20.082;2022-09-20T09:51:13;15.77;69.45
67641;SHT31;54434;50.096;20.082;2022-09-20T09:53:51;15.84;70.32
67641;SHT31;54434;50.096;20.082;2022-09-20T09:56:42;16.00;70.39
67641;SHT31;54434;50.096;20.082;2022-09-20T09:59:45;16.12;68.11
67641;SHT31;54434;50.096;20.082;2022-09-20T10:06:09;15.74;66.76
67641;SHT31;54434;50.096;20.082;2022-09-20T10:09:02;15.31;66.34
67641;SHT31;54434;50.096;20.082;2022-09-20T10:12:03;14.99;66.62
67641;SHT31;54434;50.096;20.082;2022-09-20T10:15:04;14.76;67.74
67641;SHT31;54434;50.096;20.082;2022-09-20T10:18:05;14.69;68.34
67641;SHT31;54434;50.096;20.082;2022-09-20T10:21:05;14.71;68.96
67641;SHT31;54434;50.096;20.082;2022-09-20T10:24:07;14.76;68.81
67641;SHT31;54434;50.096;20.082;2022-09-20T10:30:13;14.97;69.42
67641;SHT31;54434;50.096;20.082;2022-09-20T10:33:02;15.16;69.75
67641;SHT31;54434;50.096;20.082;2022-09-20T10:36:00;15.39;68.37
67641;SHT31;54434;50.096;20.082;2022-09-20T10:38:57;15.52;68.25
67641;SHT31;54434;50.096;20.082;2022-09-20T10:41:48;15.82;67.92
67641;SHT31;54434;50.096;20.082;2022-09-20T10:45:07;16.10;65.86
67641;SHT31;54434;50.096;20.082;2022-09-20T10:48:15;16.23;66.04
67641;SHT31;54434;50.096;20.082;2022-09-20T10:51:01;16.20;64.64
67641;SHT31;54434;50.096;20.082;2022-09-20T10:53:50;16.05;63.99
67641;SHT31;54434;50.096;20.082;2022-09-20T10:56:41;15.85;63.19
67641;SHT31;54434;50.096;20.082;2022-09-20T10:59:28;15.74;63.93
67641;SHT31;54434;50.096;20.082;2022-09-20T11:02:42;15.73;64.50
67641;SHT31;54434;50.096;20.082;2022-09-20T11:05:41;15.68;65.66
67641;SHT31;54434;50.096;20.082;2022-09-20T11:08:33;15.83;65.66
67641;SHT31;54434;50.096;20.082;2022-09-20T11:11:14;15.98;65.98
67641;SHT31;54434;50.096;20.082;2022-09-20T11:14:00;16.25;64.99
67641;SHT31;54434;50.096;20.082;2022-09-20T11:16:46;16.36;62.73
67641;SHT31;54434;50.096;20.082;2022-09-20T11:19:31;16.38;62.09
67641;SHT31;54434;50.096;20.082;2022-09-20T11:22:21;16.31;61.63
67641;SHT31;54434;50.096;20.082;2022-09-20T11:25:05;16.25;61.98
67641;SHT31;54434;50.096;20.082;2022-09-20T11:27:57;16.13;62.21
67641;SHT31;54434;50.096;20.082;2022-09-20T11:30:46;16.19;62.99
67641;SHT31;54434;50.096;20.082;2022-09-20T11:33:33;16.38;63.39
67641;SHT31;54434;50.096;20.082;2022-09-20T11:36:18;16.34;62.22
67641;SHT31;54434;50.096;20.082;2022-09-20T11:39:03;16.15;61.35
67641;SHT31;54434;50.096;20.082;2022-09-20T11:41:46;15.97;63.01
67641;SHT31;54434;50.096;20.082;2022-09-20T11:44:27;15.82;61.72
67641;SHT31;54434;50.096;20.082;2022-09-20T11:47:16;15.66;60.76
67641;SHT31;54434;50.096;20.082;2022-09-20T11:54:12;15.20;59.84
67641;SHT31;54434;50.096;20.082;2022-09-20T11:57:06;15.07;59.41
67641;SHT31;54434;50.096;20.082;2022-09-20T11:59:52;15.07;60.38
67641;SHT31;54434;50.096;20.082;2022-09-20T12:02:34;15.13;61.28
67641;SHT31;54434;50.096;20.082;2022-09-20T12:05:28;15.29;61.73
67641;SHT31;54434;50.096;20.082;2022-09-20T12:08:19;15.42;61.05
67641;SHT31;54434;50.096;20.082;2022-09-20T12:11:01;15.54;61.07
67641;SHT31;54434;50.096;20.082;2022-09-20T12:13:42;15.64;61.17
67641;SHT31;54434;50.096;20.082;2022-09-20T12:16:42;15.69;61.09
67641;SHT31;54434;50.096;20.082;2022-09-20T12:19:37;15.71;58.63
67641;SHT31;54434;50.096;20.082;2022-09-20T12:22:27;15.74;58.10
67641;SHT31;54434;50.096;20.082;2022-09-20T12:25:37;15.66;58.08
67641;SHT31;54434;50.096;20.082;2022-09-20T12:28:35;15.55;58.44
67641;SHT31;54434;50.096;20.082;2022-09-20T12:31:44;15.53;59.22
67641;SHT31;54434;50.096;20.082;2022-09-20T12:34:33;15.47;59.36
67641;SHT31;54434;50.096;20.082;2022-09-20T12:37:23;15.41;59.49
67641;SHT31;54434;50.096;20.082;2022-09-20T12:40:01;15.49;60.15
67641;SHT31;54434;50.096;20.082;2022-09-20T12:42:52;15.61;59.68
67641;SHT31;54434;50.096;20.082;2022-09-20T12:45:29;15.77;59.67
67641;SHT31;54434;50.096;20.082;2022-09-20T12:48:16;15.96;59.06
67641;SHT31;54434;50.096;20.082;2022-09-20T12:51:18;16.06;58.66
67641;SHT31;54434;50.096;20.082;2022-09-20T12:54:20;16.01;58.29
67641;SHT31;54434;50.096;20.082;2022-09-20T12:57:14;15.95;58.75
67641;SHT31;54434;50.096;20.082;2022-09-20T13:00:03;15.89;60.69
67641;SHT31;54434;50.096;20.082;2022-09-20T13:03:20;15.52;61.99
67641;SHT31;54434;50.096;20.082;2022-09-20T13:06:23;15.18;61.47
67641;SHT31;54434;50.096;20.082;2022-09-20T13:09:04;14.81;61.55
67641;SHT31;54434;50.096;20.082;2022-09-20T13:11:46;14.37;63.86
67641;SHT31;54434;50.096;20.082;2022-09-20T13:14:28;13.94;66.28
67641;SHT31;54434;50.096;20.082;2022-09-20T13:17:13;13.57;67.55
67641;SHT31;54434;50.096;20.082;2022-09-20T13:20:01;13.24;69.03
67641;SHT31;54434;50.096;20.082;2022-09-20T13:22:46;12.99;70.62
67641;SHT31;54434;50.096;20.082;2022-09-20T13:25:30;12.80;71.83
67641;SHT31;54434;50.096;20.082;2022-09-20T13:28:19;12.76;73.16
67641;SHT31;54434;50.096;20.082;2022-09-20T13:31:25;12.77;73.21
67641;SHT31;54434;50.096;20.082;2022-09-20T13:34:17;12.87;74.18
67641;SHT31;54434;50.096;20.082;2022-09-20T13:36:56;13.00;74.17
67641;SHT31;54434;50.096;20.082;2022-09-20T13:39:35;13.15;74.10
67641;SHT31;54434;50.096;20.082;2022-09-20T13:42:14;13.24;72.99
67641;SHT31;54434;50.096;20.082;2022-09-20T13:44:52;13.24;70.96
67641;SHT31;54434;50.096;20.082;2022-09-20T13:47:30;13.24;71.21
67641;SHT31;54434;50.096;20.082;2022-09-20T13:50:21;13.29;70.90
67641;SHT31;54434;50.096;20.082;2022-09-20T13:53:12;13.39;71.75
67641;SHT31;54434;50.096;20.082;2022-09-20T13:56:13;13.51;71.58
67641;SHT31;54434;50.096;20.082;2022-09-20T13:58:54;13.62;71.18
67641;SHT31;54434;50.096;20.082;2022-09-20T14:01:38;13.73;71.71
67641;SHT31;54434;50.096;20.082;2022-09-20T14:04:24;13.85;71.19
67641;SHT31;54434;50.096;20.082;2022-09-20T14:07:04;13.93;71.80
67641;SHT31;54434;50.096;20.082;2022-09-20T14:09:41;14.02;71.97
67641;SHT31;54434;50.096;20.082;2022-09-20T14:12:19;14.11;71.30
67641;SHT31;54434;50.096;20.082;2022-09-20T14:14:57;14.19;71.26
67641;SHT31;54434;50.096;20.082;2022-09-20T14:17:40;14.30;70.88
67641;SHT31;54434;50.096;20.082;2022-09-20T14:20:17;14.39;70.74
67641;SHT31;54434;50.096;20.082;2022-09-20T14:22:54;14.47;70.19
67641;SHT31;54434;50.096;20.082;2022-09-20T14:25:31;14.51;68.97
67641;SHT31;54434;50.096;20.082;2022-09-20T14:28:17;14.54;69.47
67641;SHT31;54434;50.096;20.082;2022-09-20T14:31:06;14.52;69.44
67641;SHT31;54434;50.096;20.082;2022-09-20T14:33:49;14.46;69.54
67641;SHT31;54434;50.096;20.082;2022-09-20T14:36:29;14.41;70.07
67641;SHT31;54434;50.096;20.082;2022-09-20T14:39:09;14.36;70.13
67641;SHT31;54434;50.096;20.082;2022-09-20T14:41:50;14.29;70.06
67641;SHT31;54434;50.096;20.082;2022-09-20T14:44:31;14.22;70.32
67641;SHT31;54434;50.096;20.082;2022-09-20T14:47:15;14.16;70.52
67641;SHT31;54434;50.096;20.082;2022-09-20T14:49:59;14.14;70.61
67641;SHT31;54434;50.096;20.082;2022-09-20T14:53:25;14.14;71.04
67641;SHT31;54434;50.096;20.082;2022-09-20T14:56:09;14.20;71.16
67641;SHT31;54434;50.096;20.082;2022-09-20T14:59:20;14.20;70.93
67641;SHT31;54434;50.096;20.082;2022-09-20T15:02:08;14.16;70.82
67641;SHT31;54434;50.096;20.082;2022-09-20T15:04:53;14.16;70.64
67641;SHT31;54434;50.096;20.082;2022-09-20T15:07:32;14.13;68.69
67641;SHT31;54434;50.096;20.082;2022-09-20T15:10:14;14.10;68.88
67641;SHT31;54434;50.096;20.082;2022-09-20T15:12:51;14.07;68.74
67641;SHT31;54434;50.096;20.082;2022-09-20T15:15:27;14.08;69.31
67641;SHT31;54434;50.096;20.082;2022-09-20T15:18:04;14.10;69.33
67641;SHT31;54434;50.096;20.082;2022-09-20T15:20:53;14.12;69.60
67641;SHT31;54434;50.096;20.082;2022-09-20T15:23:30;14.11;69.54
67641;SHT31;54434;50.096;20.082;2022-09-20T15:26:08;14.14;69.83
67641;SHT31;54434;50.096;20.082;2022-09-20T15:28:46;14.16;69.77
67641;SHT31;54434;50.096;20.082;2022-09-20T15:31:23;14.16;69.43
67641;SHT31;54434;50.096;20.082;2022-09-20T15:34:00;14.16;69.82
67641;SHT31;54434;50.096;20.082;2022-09-20T15:36:39;14.15;69.70
67641;SHT31;54434;50.096;20.082;2022-09-20T15:39:16;14.14;69.96
67641;SHT31;54434;50.096;20.082;2022-09-20T15:41:55;14.13;70.14
67641;SHT31;54434;50.096;20.082;2022-09-20T15:44:33;14.13;70.00
67641;SHT31;54434;50.096;20.082;2022-09-20T15:47:09;14.12;69.83
67641;SHT31;54434;50.096;20.082;2022-09-20T15:49:46;14.11;69.61
67641;SHT31;54434;50.096;20.082;2022-09-20T15:52:23;14.09;69.71
67641;SHT31;54434;50.096;20.082;2022-09-20T15:55:06;14.06;70.14
67641;SHT31;54434;50.096;20.082;2022-09-20T15:57:43;14.00;69.98
67641;SHT31;54434;50.096;20.082;2022-09-20T16:00:20;13.95;70.06
67641;SHT31;54434;50.096;20.082;2022-09-20T16:02:56;13.89;70.14
67641;SHT31;54434;50.096;20.082;2022-09-20T16:05:32;13.86;70.33
67641;SHT31;54434;50.096;20.082;2022-09-20T16:08:09;13.81;70.69
67641;SHT31;54434;50.096;20.082;2022-09-20T16:10:55;13.73;71.06
67641;SHT31;54434;50.096;20.082;2022-09-20T16:13:35;13.62;71.10
67641;SHT31;54434;50.096;20.082;2022-09-20T16:16:12;13.49;71.18
67641;SHT31;54434;50.096;20.082;2022-09-20T16:18:49;13.41;71.47
67641;SHT31;54434;50.096;20.082;2022-09-20T16:21:44;13.30;71.79
67641;SHT31;54434;50.096;20.082;2022-09-20T16:24:31;13.20;71.78
67641;SHT31;54434;50.096;20.082;2022-09-20T16:27:08;13.11;72.05
67641;SHT31;54434;50.096;20.082;2022-09-20T16:29:49;12.97;72.43
67641;SHT31;54434;50.096;20.082;2022-09-20T16:32:26;12.86;72.65
67641;SHT31;54434;50.096;20.082;2022-09-20T16:35:02;12.76;72.65
67641;SHT31;54434;50.096;20.082;2022-09-20T16:37:40;12.64;72.59
67641;SHT31;54434;50.096;20.082;2022-09-20T16:40:18;12.52;72.81
67641;SHT31;54434;50.096;20.082;2022-09-20T16:42:56;12.41;72.75
67641;SHT31;54434;50.096;20.082;2022-09-20T16:45:32;12.33;72.88
67641;SHT31;54434;50.096;20.082;2022-09-20T16:48:08;12.27;72.92
67641;SHT31;54434;50.096;20.082;2022-09-20T16:50:44;12.23;73.13
67641;SHT31;54434;50.096;20.082;2022-09-20T16:53:29;12.14;73.20
67641;SHT31;54434;50.096;20.082;2022-09-20T16:56:05;12.10;73.41
67641;SHT31;54434;50.096;20.082;2022-09-20T16:58:52;12.03;73.82
67641;SHT31;54434;50.096;20.082;2022-09-20T17:01:29;11.97;74.12
67641;SHT31;54434;50.096;20.082;2022-09-20T17:04:07;11.92;74.35
67641;SHT31;54434;50.096;20.082;2022-09-20T17:06:45;11.84;74.69
67641;SHT31;54434;50.096;20.082;2022-09-20T17:09:23;11.72;75.18
67641;SHT31;54434;50.096;20.082;2022-09-20T17:12:00;11.63;75.36
67641;SHT31;54434;50.096;20.082;2022-09-20T17:14:39;11.57;75.44
67641;SHT31;54434;50.096;20.082;2022-09-20T17:17:16;11.52;75.63
67641;SHT31;54434;50.096;20.082;2022-09-20T17:19:53;11.46;75.93
67641;SHT31;54434;50.096;20.082;2022-09-20T17:22:29;11.38;76.33
67641;SHT31;54434;50.096;20.082;2022-09-20T17:25:08;11.33;76.75
67641;SHT31;54434;50.096;20.082;2022-09-20T17:27:44;11.28;77.15
67641;SHT31;54434;50.096;20.082;2022-09-20T17:30:21;11.21;77.50
67641;SHT31;54434;50.096;20.082;2022-09-20T17:33:00;11.14;78.05
67641;SHT31;54434;50.096;20.082;2022-09-20T17:35:38;11.08;78.69
67641;SHT31;54434;50.096;20.082;2022-09-20T17:38:24;11.02;79.20
67641;SHT31;54434;50.096;20.082;2022-09-20T17:41:03;10.99;79.42
67641;SHT31;54434;50.096;20.082;2022-09-20T17:43:45;10.97;79.71
67641;SHT31;54434;50.096;20.082;2022-09-20T17:46:27;10.95;79.93
67641;SHT31;54434;50.096;20.082;2022-09-20T17:49:05;10.94;80.04
67641;SHT31;54434;50.096;20.082;2022-09-20T17:51:45;10.94;80.13
67641;SHT31;54434;50.096;20.082;2022-09-20T17:54:24;10.95;80.02
67641;SHT31;54434;50.096;20.082;2022-09-20T17:57:00;10.96;80.09
67641;SHT31;54434;50.096;20.082;2022-09-20T17:59:37;10.97;80.10
67641;SHT31;54434;50.096;20.082;2022-09-20T18:02:15;10.98;79.99